Home > Products > Valid Products > TAF

000
FTUS46 KPDT 061337 AAA
TAFRDM
TAF AMD
KRDM 061337Z 0614/0712 32010KT P6SM BKN035 OVC060
     FM061600 32007KT P6SM SCT035 BKN060
     FM061800 34016G24KT P6SM SCT060 SCT250
     FM062300 35018G26KT P6SM VCTS SCT050CB BKN080
     FM070200 35013KT P6SM FEW060 BKN100=



000
FTUS46 KPDT 061337 AAA
TAFRDM
TAF AMD
KRDM 061337Z 0614/0712 32010KT P6SM BKN035 OVC060
     FM061600 32007KT P6SM SCT035 BKN060
     FM061800 34016G24KT P6SM SCT060 SCT250
     FM062300 35018G26KT P6SM VCTS SCT050CB BKN080
     FM070200 35013KT P6SM FEW060 BKN100=



000
FTUS46 KPDT 061137
TAFYKM
TAF
KYKM 061137Z 0612/0712 29006KT P6SM FEW100 SCT250
     FM061800 34013KT P6SM SCT080
     FM070400 28011KT P6SM SKC=



000
FTUS46 KPDT 061137
TAFPSC
TAF
KPSC 061137Z 0612/0712 34006KT P6SM SCT080 BKN200
     FM061700 35011KT P6SM SCT100
     FM062000 35015G22KT P6SM SCT090
     FM070400 34009KT P6SM FEW100=



000
FTUS46 KPDT 061137
TAFDLS
TAF
KDLS 061137Z 0612/0712 32006KT P6SM BKN090
     FM061700 32010KT P6SM SCT100
     FM062100 03011KT P6SM SCT100
     FM070300 32011KT P6SM SKC=



000
FTUS46 KPDT 061137
TAFRDM
TAF
KRDM 061137Z 0612/0712 32010KT P6SM BKN035 OVC050
     FM061400 32007KT P6SM SCT035 BKN060
     FM061800 34016G24KT P6SM SCT060 SCT250
     FM062300 35018G26KT P6SM VCTS SCT050CB BKN080
     FM070200 35013KT P6SM FEW060 BKN100=



000
FTUS46 KPDT 061137
TAFPDT
TAF
KPDT 061137Z 0612/0712 27006KT P6SM SCT080 BKN200
     FM061500 27009KT P6SM SCT025 BKN200
     FM062000 02012G20KT P6SM SCT050 BKN150
     FM070400 29007KT P6SM SCT080=



000
FTUS46 KPDT 061137
TAFRDM
TAF
KRDM 061137Z 0612/0712 32010KT P6SM BKN035 OVC050
     FM061400 32007KT P6SM SCT035 BKN060
     FM061800 34016G24KT P6SM SCT060 SCT250
     FM062300 35018G26KT P6SM VCTS SCT050CB BKN080
     FM070200 35013KT P6SM FEW060 BKN100=



000
FTUS46 KPDT 061137
TAFYKM
TAF
KYKM 061137Z 0612/0712 29006KT P6SM FEW100 SCT250
     FM061800 34013KT P6SM SCT080
     FM070400 28011KT P6SM SKC=



000
FTUS46 KPDT 061137
TAFALW
TAF
KALW 061137Z 0612/0712 19007KT P6SM SCT080 BKN200
     FM061500 21008KT P6SM SCT020 BKN200
     FM062000 02011G20KT P6SM SCT050 BKN150
     FM070400 10010KT P6SM SCT080=



000
FTUS46 KPDT 061137
TAFDLS
TAF
KDLS 061137Z 0612/0712 32006KT P6SM BKN090
     FM061700 32010KT P6SM SCT100
     FM062100 03011KT P6SM SCT100
     FM070300 32011KT P6SM SKC=



000
FTUS46 KPDT 061137
TAFPSC
TAF
KPSC 061137Z 0612/0712 34006KT P6SM SCT080 BKN200
     FM061700 35011KT P6SM SCT100
     FM062000 35015G22KT P6SM SCT090
     FM070400 34009KT P6SM FEW100=



000
FTUS46 KPDT 061137
TAFPDT
TAF
KPDT 061137Z 0612/0712 27006KT P6SM SCT080 BKN200
     FM061500 27009KT P6SM SCT025 BKN200
     FM062000 02012G20KT P6SM SCT050 BKN150
     FM070400 29007KT P6SM SCT080=



000
FTUS46 KPDT 061137
TAFALW
TAF
KALW 061137Z 0612/0712 19007KT P6SM SCT080 BKN200
     FM061500 21008KT P6SM SCT020 BKN200
     FM062000 02011G20KT P6SM SCT050 BKN150
     FM070400 10010KT P6SM SCT080=



000
FTUS46 KPDT 061041 AAB
TAFRDM
TAF AMD
KRDM 061041Z 0611/0706 32009KT P6SM BKN024 OVC035
      TEMPO 0611/0613 SCT025 BKN035
     FM061300 33006KT P6SM SCT029 BKN100
     FM061900 35012G22KT P6SM SCT250
      TEMPO 0622/0702 -TSRA BKN050CB BKN100
     FM070400 35008KT P6SM SCT050 BKN100=



000
FTUS46 KPDT 061004 AAA
TAFRDM
TAF AMD
KRDM 061004Z 0610/0706 32009KT P6SM VCSH BKN020 OVC035
     FM061600 33006KT P6SM SCT025 BKN100
     FM061900 35012G22KT P6SM SCT250
      TEMPO 0622/0702 -TSRA BKN050CB BKN100
     FM070400 35008KT P6SM SCT050 BKN100=



000
FTUS46 KPDT 060536
TAFALW
TAF
KALW 060536Z 0606/0706 VRB06KT P6SM VCSH BKN040 BKN100
      TEMPO 0606/0610 -RA BKN040 BKN100
     FM061000 VRB06KT P6SM SCT040 BKN100
     FM061600 32008KT P6SM SCT100 BKN250
     FM062100 36012G22KT P6SM SCT100 BKN250
     FM070400 36008KT P6SM SCT100 BKN250=



000
FTUS46 KPDT 060536
TAFDLS
TAF
KDLS 060536Z 0606/0706 30010KT P6SM SCT060 BKN100
     FM061200 32005KT P6SM SCT100 BKN250
     FM061700 32010KT P6SM BKN250
     FM062000 32010KT P6SM SCT100 BKN250=



000
FTUS46 KPDT 060536
TAFRDM
TAF
KRDM 060536Z 0606/0706 32009KT P6SM VCSH BKN050 BKN100
     FM060900 17007KT P6SM SCT050 BKN100
     FM061800 34008KT P6SM SCT100 BKN250
     FM062000 35012G22KT P6SM SCT250
      TEMPO 0622/0702 -TSRA BKN050CB BKN100
     FM070400 35008KT P6SM SCT050 BKN100=



000
FTUS46 KPDT 060536
TAFPDT
TAF
KPDT 060536Z 0606/0706 34007KT P6SM VCSH BKN070 BKN100
      TEMPO 0606/0610 -RA BKN050 BKN100
     FM061000 VRB06KT P6SM SCT050 BKN100
     FM061600 32008KT P6SM SCT100 BKN250
     FM062100 36012G22KT P6SM SCT100 BKN250
     FM070400 36008KT P6SM SCT100 BKN250=



000
FTUS46 KPDT 060536
TAFYKM
TAF
KYKM 060536Z 0606/0706 35008KT P6SM SCT060 BKN100
     FM061200 30009KT P6SM SCT100 BKN250
     FM061900 35009KT P6SM SCT070 BKN250
     FM070400 25007KT P6SM BKN250=



000
FTUS46 KPDT 060536
TAFPSC
TAF
KPSC 060536Z 0606/0706 32007KT P6SM VCSH BKN070 BKN100
      TEMPO 0607/0610 -RA BKN060 BKN100
     FM061000 VRB06KT P6SM SCT060 BKN100
     FM061600 32008KT P6SM SCT100 BKN250
     FM062100 36012G22KT P6SM SCT100 SCT250
     FM070400 36008KT P6SM SCT100 BKN250=



000
FTUS46 KPDT 052348 AAA
TAFPDT
TAF AMD
KPDT 052348Z 0600/0624 34007KT P6SM VCSH BKN040 BKN100
      TEMPO 0600/0603 VRB20G35KT 5SM -TSRA BKN035CB OVC070
     FM060500 14006KT P6SM SCT050 OVC100
     FM061000 VRB04KT P6SM BKN100
     FM061600 28009KT P6SM SCT100 BKN200
     FM062100 36013G20KT P6SM SCT200=



000
FTUS46 KPDT 052348 AAA
TAFPDT
TAF AMD
KPDT 052348Z 0600/0624 34007KT P6SM VCSH BKN040 BKN100
      TEMPO 0600/0603 VRB20G35KT 5SM -TSRA BKN035CB OVC070
     FM060500 14006KT P6SM SCT050 OVC100
     FM061000 VRB04KT P6SM BKN100
     FM061600 28009KT P6SM SCT100 BKN200
     FM062100 36013G20KT P6SM SCT200=



000
FTUS46 KPDT 052320
TAFRDM
TAF
KRDM 052320Z 0600/0624 34008KT P6SM VCSH SCT030 BKN060
      TEMPO 0600/0603 VRB20G35KT 3SM -TSRA BKN025CB OVC050
     FM060400 32009KT P6SM VCSH SCT030 BKN050
     FM060900 VRB04KT P6SM SCT050 BKN200
     FM061800 34008KT P6SM SCT200
     FM062100 35011G18KT P6SM SCT200=



000
FTUS46 KPDT 052320
TAFDLS
TAF
KDLS 052320Z 0600/0624 33010KT P6SM VCSH SCT060 BKN100
     FM060400 31010KT P6SM BKN100
     FM061400 32005KT P6SM SCT100
     FM061700 32010KT P6SM SKC
     FM062000 32018G24KT P6SM SKC=



000
FTUS46 KPDT 052320
TAFPSC
TAF
KPSC 052320Z 0600/0624 35007KT P6SM VCSH SCT050 BKN100
      TEMPO 0601/0604 -SHRA BKN050 OVC080
     FM060500 33008KT P6SM SCT060 OVC100
     FM061200 VRB05KT P6SM SCT100 BKN200
     FM062000 35007KT P6SM SCT200=



000
FTUS46 KPDT 052320
TAFALW
TAF
KALW 052320Z 0600/0624 34007KT P6SM VCSH SCT040 BKN100
      TEMPO 0601/0604 VRB20G30KT 5SM -TSRA BKN035CB OVC070
     FM060600 14007KT P6SM SCT050 OVC100
     FM061200 17005KT P6SM BKN100
     FM061600 20007KT P6SM SCT100 BKN200
     FM062100 35008KT P6SM SCT200=



000
FTUS46 KPDT 052320
TAFPDT
TAF
KPDT 052320Z 0600/0624 34007KT P6SM VCSH SCT040 BKN100
      TEMPO 0600/0603 VRB20G35KT 5SM -TSRA BKN035CB OVC070
     FM060500 14006KT P6SM SCT050 OVC100
     FM061000 VRB04KT P6SM BKN100
     FM061600 28009KT P6SM SCT100 BKN200
     FM062100 36013G20KT P6SM SCT200=



000
FTUS46 KPDT 052320
TAFYKM
TAF
KYKM 052320Z 0600/0624 36007KT P6SM VCSH SCT050 BKN100
     FM060400 32009KT P6SM SCT060 BKN100
     FM061200 32009KT P6SM SCT100 BKN200
     FM061900 35009KT P6SM SCT200=



000
FTUS46 KPDT 052320
TAFPSC
TAF
KPSC 052320Z 0600/0624 35007KT P6SM VCSH SCT050 BKN100
      TEMPO 0601/0604 -SHRA BKN050 OVC080
     FM060500 33008KT P6SM SCT060 OVC100
     FM061200 VRB05KT P6SM SCT100 BKN200
     FM062000 35007KT P6SM SCT200=



000
FTUS46 KPDT 052320
TAFDLS
TAF
KDLS 052320Z 0600/0624 33010KT P6SM VCSH SCT060 BKN100
     FM060400 31010KT P6SM BKN100
     FM061400 32005KT P6SM SCT100
     FM061700 32010KT P6SM SKC
     FM062000 32018G24KT P6SM SKC=



000
FTUS46 KPDT 052320
TAFRDM
TAF
KRDM 052320Z 0600/0624 34008KT P6SM VCSH SCT030 BKN060
      TEMPO 0600/0603 VRB20G35KT 3SM -TSRA BKN025CB OVC050
     FM060400 32009KT P6SM VCSH SCT030 BKN050
     FM060900 VRB04KT P6SM SCT050 BKN200
     FM061800 34008KT P6SM SCT200
     FM062100 35011G18KT P6SM SCT200=



000
FTUS46 KPDT 052320
TAFALW
TAF
KALW 052320Z 0600/0624 34007KT P6SM VCSH SCT040 BKN100
      TEMPO 0601/0604 VRB20G30KT 5SM -TSRA BKN035CB OVC070
     FM060600 14007KT P6SM SCT050 OVC100
     FM061200 17005KT P6SM BKN100
     FM061600 20007KT P6SM SCT100 BKN200
     FM062100 35008KT P6SM SCT200=



000
FTUS46 KPDT 052320
TAFYKM
TAF
KYKM 052320Z 0600/0624 36007KT P6SM VCSH SCT050 BKN100
     FM060400 32009KT P6SM SCT060 BKN100
     FM061200 32009KT P6SM SCT100 BKN200
     FM061900 35009KT P6SM SCT200=



000
FTUS46 KPDT 052320
TAFPDT
TAF
KPDT 052320Z 0600/0624 34007KT P6SM VCSH SCT040 BKN100
      TEMPO 0600/0603 VRB20G35KT 5SM -TSRA BKN035CB OVC070
     FM060500 14006KT P6SM SCT050 OVC100
     FM061000 VRB04KT P6SM BKN100
     FM061600 28009KT P6SM SCT100 BKN200
     FM062100 36013G20KT P6SM SCT200=



000
FTUS46 KPDT 052049 AAA
TAFRDM
TAF AMD
KRDM 052049Z 0521/0618 34008G15KT P6SM VCSH SCT030 BKN080
      TEMPO 0522/0601 VRB20G35KT -TSRA BKN030CB OVC070
     FM060400 32011KT P6SM VCSH SCT050 BKN080
     FM060900 VRB04KT P6SM SCT050 BKN200=



000
FTUS46 KPDT 051813 AAA
TAFALW
TAF AMD
KALW 051813Z 0518/0618 22006KT P6SM SCT025 BKN150
      TEMPO 0518/0520 BKN025
     FM060000 36008KT P6SM -SHRA SCT060 BKN100
      TEMPO 0602/0605 VRB25G40KT -TSRA BKN050CB OVC080
     FM060600 14007KT P6SM VCSH SCT060 OVC100
     FM061200 17005KT P6SM BKN100
     FM061600 20007KT P6SM SCT100 BKN200=



000
FTUS46 KPDT 051813 AAA
TAFALW
TAF AMD
KALW 051813Z 0518/0618 22006KT P6SM SCT025 BKN150
      TEMPO 0518/0520 BKN025
     FM060000 36008KT P6SM -SHRA SCT060 BKN100
      TEMPO 0602/0605 VRB25G40KT -TSRA BKN050CB OVC080
     FM060600 14007KT P6SM VCSH SCT060 OVC100
     FM061200 17005KT P6SM BKN100
     FM061600 20007KT P6SM SCT100 BKN200=



000
FTUS46 KPDT 051721
TAFYKM
TAF
KYKM 051721Z 0518/0618 36007KT P6SM SCT050 BKN150
     FM052100 01006KT P6SM VCSH SCT060 BKN100
     FM060300 32011KT P6SM SCT060 BKN100
     FM061200 32009KT P6SM SCT100 BKN200=



000
FTUS46 KPDT 051721
TAFPSC
TAF
KPSC 051721Z 0518/0618 VRB04KT P6SM SCT080 BKN150
     FM052000 35006KT P6SM SCT070 BKN120
     FM060100 35009KT P6SM VCSH SCT060 OVC100
     FM060300 33010KT P6SM -SHRA SCT060 OVC100
     FM060600 32007KT P6SM BKN100
     FM061200 VRB05KT P6SM SCT100 BKN200=



000
FTUS46 KPDT 051721
TAFPDT
TAF
KPDT 051721Z 0518/0618 28006KT P6SM SCT040 BKN150
     FM052300 35008KT P6SM -SHRA SCT060 BKN100
      TEMPO 0600/0603 VRB25G40KT -TSRA BKN050CB OVC080
     FM060400 14007KT P6SM VCSH SCT060 OVC100
     FM061000 VRB04KT P6SM BKN100
     FM061600 28009KT P6SM SCT100 BKN200=



000
FTUS46 KPDT 051721
TAFDLS
TAF
KDLS 051721Z 0518/0618 32011G18KT P6SM SCT080 BKN150
     FM052300 32012G20KT P6SM VCSH SCT060 BKN100
     FM060400 31010KT P6SM BKN100
     FM061400 32005KT P6SM SCT100=



000
FTUS46 KPDT 051721
TAFALW
TAF
KALW 051721Z 0518/0618 22006KT P6SM SCT050 BKN150
     FM060000 36008KT P6SM -SHRA SCT060 BKN100
      TEMPO 0602/0605 VRB25G40KT -TSRA BKN050CB OVC080
     FM060600 14007KT P6SM VCSH SCT060 OVC100
     FM061200 17005KT P6SM BKN100
     FM061600 20007KT P6SM SCT100 BKN200=



000
FTUS46 KPDT 051721
TAFRDM
TAF
KRDM 051721Z 0518/0618 33006KT P6SM VCSH SCT012 BKN150
      TEMPO 0518/0520 BKN012
     FM052100 34009G16KT P6SM -SHRA SCT040 BKN100
      TEMPO 0522/0601 VRB20G35KT -TSRA BKN035CB OVC080
     FM060400 32011KT P6SM VCSH SCT050 BKN080
     FM060900 VRB04KT P6SM SCT050 BKN200=



000
FTUS46 KPDT 051721
TAFPDT
TAF
KPDT 051721Z 0518/0618 28006KT P6SM SCT040 BKN150
     FM052300 35008KT P6SM -SHRA SCT060 BKN100
      TEMPO 0600/0603 VRB25G40KT -TSRA BKN050CB OVC080
     FM060400 14007KT P6SM VCSH SCT060 OVC100
     FM061000 VRB04KT P6SM BKN100
     FM061600 28009KT P6SM SCT100 BKN200=



000
FTUS46 KPDT 051721
TAFPSC
TAF
KPSC 051721Z 0518/0618 VRB04KT P6SM SCT080 BKN150
     FM052000 35006KT P6SM SCT070 BKN120
     FM060100 35009KT P6SM VCSH SCT060 OVC100
     FM060300 33010KT P6SM -SHRA SCT060 OVC100
     FM060600 32007KT P6SM BKN100
     FM061200 VRB05KT P6SM SCT100 BKN200=



000
FTUS46 KPDT 051721
TAFYKM
TAF
KYKM 051721Z 0518/0618 36007KT P6SM SCT050 BKN150
     FM052100 01006KT P6SM VCSH SCT060 BKN100
     FM060300 32011KT P6SM SCT060 BKN100
     FM061200 32009KT P6SM SCT100 BKN200=



000
FTUS46 KPDT 051721
TAFALW
TAF
KALW 051721Z 0518/0618 22006KT P6SM SCT050 BKN150
     FM060000 36008KT P6SM -SHRA SCT060 BKN100
      TEMPO 0602/0605 VRB25G40KT -TSRA BKN050CB OVC080
     FM060600 14007KT P6SM VCSH SCT060 OVC100
     FM061200 17005KT P6SM BKN100
     FM061600 20007KT P6SM SCT100 BKN200=



000
FTUS46 KPDT 051721
TAFDLS
TAF
KDLS 051721Z 0518/0618 32011G18KT P6SM SCT080 BKN150
     FM052300 32012G20KT P6SM VCSH SCT060 BKN100
     FM060400 31010KT P6SM BKN100
     FM061400 32005KT P6SM SCT100=



000
FTUS46 KPDT 051721
TAFRDM
TAF
KRDM 051721Z 0518/0618 33006KT P6SM VCSH SCT012 BKN150
      TEMPO 0518/0520 BKN012
     FM052100 34009G16KT P6SM -SHRA SCT040 BKN100
      TEMPO 0522/0601 VRB20G35KT -TSRA BKN035CB OVC080
     FM060400 32011KT P6SM VCSH SCT050 BKN080
     FM060900 VRB04KT P6SM SCT050 BKN200=



000
FTUS46 KPDT 051323 AAA
TAFRDM
TAF AMD
KRDM 051323Z 0513/0612 VRB03KT P6SM SCT070 BKN110
      TEMPO 0513/0515 2SM BR
     FM051700 34006KT P6SM VCSH SCT060 BKN100
     FM052000 34011KT P6SM -SHRA BKN060 BKN090
      TEMPO 0522/0601 -TSRA BKN050CB OVC080
     FM060400 32013G19KT P6SM VCSH SCT060 BKN080=



000
FTUS46 KPDT 051323 AAA
TAFRDM
TAF AMD
KRDM 051323Z 0513/0612 VRB03KT P6SM SCT070 BKN110
      TEMPO 0513/0515 2SM BR
     FM051700 34006KT P6SM VCSH SCT060 BKN100
     FM052000 34011KT P6SM -SHRA BKN060 BKN090
      TEMPO 0522/0601 -TSRA BKN050CB OVC080
     FM060400 32013G19KT P6SM VCSH SCT060 BKN080=



000
FTUS46 KPDT 051137
TAFRDM
TAF
KRDM 051137Z 0512/0612 VRB03KT P6SM SCT070 BKN110
     FM051700 34006KT P6SM VCSH SCT060 BKN100
     FM052000 34011KT P6SM -SHRA BKN060 BKN090
      TEMPO 0522/0601 -TSRA BKN050CB OVC080
     FM060400 32013G19KT P6SM VCSH SCT060 BKN080=



000
FTUS46 KPDT 051137
TAFALW
TAF
KALW 051137Z 0512/0612 12006KT P6SM VCSH SCT050 BKN120
     FM051500 20006KT P6SM SCT050 BKN150
     FM052100 33008KT P6SM -SHRA SCT050 BKN090
      TEMPO 0523/0602 -TSRA BKN050CB OVC090
     FM060400 14007KT P6SM VCSH SCT050 OVC090=



000
FTUS46 KPDT 051137
TAFYKM
TAF
KYKM 051137Z 0512/0612 30006KT P6SM BKN070 BKN150
     FM051800 01007KT P6SM SCT070 BKN110
     FM052100 35008KT P6SM VCSH BKN070 BKN100
     FM060300 32012KT P6SM SCT070 BKN110=



000
FTUS46 KPDT 051137
TAFPDT
TAF
KPDT 051137Z 0512/0612 17004KT P6SM VCSH SCT080 BKN120
     FM051600 26006KT P6SM SCT070 BKN150
     FM052000 34008KT P6SM -SHRA SCT060 BKN090
      TEMPO 0522/0601 -TSRA BKN060CB OVC090
     FM060400 14007KT P6SM VCSH SCT060 OVC090=



000
FTUS46 KPDT 051137
TAFPSC
TAF
KPSC 051137Z 0512/0612 VRB03KT P6SM SCT070 BKN150
     FM051900 34006KT P6SM SCT070 BKN110
     FM052200 35009KT P6SM VCSH BKN090
     FM060300 32011KT P6SM SCT090 BKN120=



000
FTUS46 KPDT 051137
TAFDLS
TAF
KDLS 051137Z 0512/0612 32009KT P6SM BKN150
     FM051800 32012G18KT P6SM SCT080 BKN110
     FM052100 32013G20KT P6SM VCSH SCT070 BKN100
     FM060300 31012KT P6SM BKN090=



000
FTUS46 KPDT 050838 AAA
TAFPDT
TAF AMD
KPDT 050838Z 0509/0606 15004KT P6SM SCT100 BKN120
      TEMPO 0509/0511 -SHRA BKN070 OVC110
     FM052000 32008KT P6SM -SHRA SCT060 BKN090
      TEMPO 0522/0602 -TSRA BKN060CB OVC090=



000
FTUS46 KPDT 050520
TAFALW
TAF
KALW 050520Z 0506/0606 18009KT P6SM FEW015 SCT050 BKN070
     FM050800 17007KT P6SM SCT050 BKN100
     FM052000 32008KT P6SM -SHRA SCT050 BKN090
      TEMPO 0522/0602 -TSRA BKN050CB OVC090=



000
FTUS46 KPDT 050520
TAFRDM
TAF
KRDM 050520Z 0506/0606 VRB06KT P6SM VCSH SCT050 BKN100
     FM050900 VRB04KT P6SM SCT050 BKN100
     FM051900 32008KT P6SM -SHRA BKN050 BKN100
      TEMPO 0522/0602 -TSRA BKN050CB OVC100=



000
FTUS46 KPDT 050520
TAFPSC
TAF
KPSC 050520Z 0506/0606 21012KT P6SM SCT070 BKN100
     FM050900 VRB06KT P6SM BKN100
     FM051900 34006KT P6SM BKN100
     FM052200 33009KT P6SM VCSH BKN090=



000
FTUS46 KPDT 050520
TAFPDT
TAF
KPDT 050520Z 0506/0606 15005KT P6SM SCT100 BKN120
     FM052000 32008KT P6SM -SHRA SCT060 BKN090
      TEMPO 0522/0602 -TSRA BKN060CB OVC090=



000
FTUS46 KPDT 050520
TAFYKM
TAF
KYKM 050520Z 0506/0606 25005KT P6SM SCT060 BKN100
     FM052200 33008KT P6SM VCSH BKN080=



000
FTUS46 KPDT 050520
TAFDLS
TAF
KDLS 050520Z 0506/0606 32010KT P6SM BKN100
     FM050800 VRB06KT P6SM BKN100
     FM052100 30010KT P6SM VCSH SCT070 BKN100=



000
FTUS46 KPDT 050404 AAB
TAFPSC
TAF AMD
KPSC 050404Z 0504/0524 20010KT P6SM -SHRA SCT050 BKN070
     FM050600 20007KT P6SM BKN100
     FM051000 VRB06KT P6SM BKN060 BKN100
     FM051800 32008KT P6SM VCSH BKN060 BKN100
      TEMPO 0520/0524 -TSRA BKN050CB OVC100=



000
FTUS46 KPDT 050402 AAB
TAFALW
TAF AMD
KALW 050402Z 0504/0524 18009KT P6SM -SHRA FEW040 SCT070 BKN090
     FM050500 17007KT P6SM SCT070 BKN100
     FM050800 VRB06KT P6SM BKN100
     FM052000 32008KT P6SM BKN050 BKN100
      TEMPO 0520/0524 -TSRA BKN050CB OVC100=



000
FTUS46 KPDT 050400 AAA
TAFYKM
TAF AMD
KYKM 050400Z 0504/0524 VRB06KT P6SM VCSH SCT060 BKN100
     FM050800 25007KT P6SM BKN100
     FM051000 28008KT P6SM BKN100
     FM052000 34008KT P6SM BKN050 BKN100
      TEMPO 0520/0524 -TSRA BKN050CB OVC100=



000
FTUS46 KPDT 050400 AAA
TAFYKM
TAF AMD
KYKM 050400Z 0504/0524 VRB06KT P6SM VCSH SCT060 BKN100
     FM050800 25007KT P6SM BKN100
     FM051000 28008KT P6SM BKN100
     FM052000 34008KT P6SM BKN050 BKN100
      TEMPO 0520/0524 -TSRA BKN050CB OVC100=



000
FTUS46 KPDT 050359 AAB
TAFRDM
TAF AMD
KRDM 050359Z 0504/0524 VRB06KT P6SM VCSH SCT070 BKN100
     FM050800 VRB04KT P6SM SCT050 BKN100
     FM052000 32008KT P6SM BKN050 BKN100
      TEMPO 0520/0524 -TSRA BKN050CB OVC100=



000
FTUS46 KPDT 050357 AAC
TAFPDT
TAF AMD
KPDT 050357Z 0504/0524 22008KT P6SM SCT070 BKN100
     FM050800 VRB06KT P6SM SCT070 BKN100
     FM052000 32008KT P6SM BKN050 BKN100
      TEMPO 0520/0524 -TSRA BKN050CB OVC100=



000
FTUS46 KPDT 050314 AAB
TAFPDT
TAF AMD
KPDT 050314Z 0503/0524 25012G25KT P6SM VCSH BKN070 BKN100
     FM050500 VRB06KT P6SM SCT070 BKN100
     FM052000 32008KT P6SM BKN050 BKN100
      TEMPO 0520/0524 -TSRA BKN050CB OVC100=



000
FTUS46 KPDT 050232 AAA
TAFRDM
TAF AMD
KRDM 050232Z 0503/0524 VRB06KT P6SM SCT070 BKN100
      TEMPO 0504/0508 4SM -TSRA BKN050CB BKN100
     FM050800 35008KT P6SM SCT050 BKN100
     FM052000 32008KT P6SM BKN050 BKN100
      TEMPO 0520/0524 -TSRA BKN050CB OVC100=



000
FTUS46 KPDT 050232 AAA
TAFRDM
TAF AMD
KRDM 050232Z 0503/0524 VRB06KT P6SM SCT070 BKN100
      TEMPO 0504/0508 4SM -TSRA BKN050CB BKN100
     FM050800 35008KT P6SM SCT050 BKN100
     FM052000 32008KT P6SM BKN050 BKN100
      TEMPO 0520/0524 -TSRA BKN050CB OVC100=



000
FTUS46 KPDT 050231 AAA
TAFDLS
TAF AMD
KDLS 050231Z 0503/0524 32010KT P6SM VCSH BKN050 BKN100
     FM050800 VRB06KT P6SM SCT050 BKN100
     FM052000 30008KT P6SM BKN050 BKN100
      TEMPO 0520/0524 -TSRA BKN050CB OVC100=



000
FTUS46 KPDT 050223 AAA
TAFPSC
TAF AMD
KPSC 050223Z 0502/0524 34008KT P6SM VCSH SCT080 BKN100
      TEMPO 0503/0505 18030G50KT -TSRA BKN050CB BKN100
     FM050500 20007KT P6SM VCSH BKN050 BKN100
     FM051000 VRB06KT P6SM BKN060 BKN100
     FM051800 32008KT P6SM VCSH BKN060 BKN100
      TEMPO 0520/0524 -TSRA BKN050CB OVC100=



000
FTUS46 KPDT 050223 AAA
TAFALW
TAF AMD
KALW 050223Z 0502/0524 34008KT P6SM VCSH SCT070 BKN100
      TEMPO 0503/0505 20030G50KT -TSRA BKN050CB BKN100
     FM050500 15007KT P6SM VCSH BKN050 BKN100
     FM050800 VRB06KT P6SM SCT050 BKN100
     FM052000 32008KT P6SM BKN050 BKN100
      TEMPO 0520/0524 -TSRA BKN050CB OVC100=



000
FTUS46 KPDT 050158 AAA
TAFPDT
TAF AMD
KPDT 050158Z 0502/0524 03015KT P6SM VCSH SCT070 BKN100
      TEMPO 0502/0504 21025G45KT -TSRA BKN050CB BKN100
     FM050400 17007KT P6SM VCSH BKN050 BKN100
     FM050800 VRB06KT P6SM SCT050 BKN100
     FM052000 32008KT P6SM BKN050 BKN100
      TEMPO 0520/0524 -TSRA BKN050CB OVC100=



000
FTUS46 KPDT 050158 AAA
TAFPDT
TAF AMD
KPDT 050158Z 0502/0524 03015KT P6SM VCSH SCT070 BKN100
      TEMPO 0502/0504 21025G45KT -TSRA BKN050CB BKN100
     FM050400 17007KT P6SM VCSH BKN050 BKN100
     FM050800 VRB06KT P6SM SCT050 BKN100
     FM052000 32008KT P6SM BKN050 BKN100
      TEMPO 0520/0524 -TSRA BKN050CB OVC100=



000
FTUS46 KPDT 042329
TAFALW
TAF
KALW 042329Z 0500/0524 34008KT P6SM VCSH SCT070 BKN100
      TEMPO 0501/0505 -TSRA BKN050CB BKN100
     FM050500 15007KT P6SM VCSH BKN050 BKN100
     FM050800 VRB06KT P6SM SCT050 BKN100
     FM052000 32008KT P6SM BKN050 BKN100
      TEMPO 0520/0524 -TSRA BKN050CB OVC100=



000
FTUS46 KPDT 042329
TAFPDT
TAF
KPDT 042329Z 0500/0524 34008KT P6SM VCSH SCT070 BKN100
      TEMPO 0501/0505 -TSRA BKN050CB BKN100
     FM050500 17007KT P6SM VCSH BKN050 BKN100
     FM050800 VRB06KT P6SM SCT050 BKN100
     FM052000 32008KT P6SM BKN050 BKN100
      TEMPO 0520/0524 -TSRA BKN050CB OVC100=



000
FTUS46 KPDT 042329
TAFDLS
TAF
KDLS 042329Z 0500/0524 32012KT P6SM VCSH SCT050 BKN100
      TEMPO 0500/0504 VRB20G30KT -TSRA BKN050CB BKN100
     FM050400 VRB06KT P6SM VCSH BKN050 BKN100
     FM050800 VRB06KT P6SM SCT050 BKN100
     FM052000 30008KT P6SM BKN050 BKN100
      TEMPO 0520/0524 -TSRA BKN050CB OVC100=



000
FTUS46 KPDT 042329
TAFYKM
TAF
KYKM 042329Z 0500/0524 VRB06KT P6SM SCT070 BKN100
      TEMPO 0502/0506 -TSRA BKN050CB BKN100
     FM050600 25007KT P6SM VCSH BKN050 BKN100
     FM051000 28008KT P6SM SCT050 BKN100
     FM052000 34008KT P6SM BKN050 BKN100
      TEMPO 0520/0524 -TSRA BKN050CB OVC100=



000
FTUS46 KPDT 042329
TAFPSC
TAF
KPSC 042329Z 0500/0524 34008KT P6SM VCSH SCT080 BKN100
      TEMPO 0501/0505 -TSRA BKN050CB BKN100
     FM050500 20007KT P6SM VCSH BKN050 BKN100
     FM051000 VRB06KT P6SM BKN060 BKN100
     FM051800 32008KT P6SM VCSH BKN060 BKN100
      TEMPO 0520/0524 -TSRA BKN050CB OVC100=



000
FTUS46 KPDT 042329
TAFRDM
TAF
KRDM 042329Z 0500/0524 28010KT P6SM SCT070 BKN100
      TEMPO 0500/0504 4SM -TSRA BKN050CB BKN100
     FM050400 17007KT P6SM VCSH BKN070 BKN100
      TEMPO 0504/0508 -TSRA BKN050CB BKN100
     FM050800 35008KT P6SM SCT050 BKN100
     FM052000 32008KT P6SM BKN050 BKN100
      TEMPO 0520/0524 -TSRA BKN050CB OVC100=



000
FTUS46 KPDT 042329
TAFALW
TAF
KALW 042329Z 0500/0524 34008KT P6SM VCSH SCT070 BKN100
      TEMPO 0501/0505 -TSRA BKN050CB BKN100
     FM050500 15007KT P6SM VCSH BKN050 BKN100
     FM050800 VRB06KT P6SM SCT050 BKN100
     FM052000 32008KT P6SM BKN050 BKN100
      TEMPO 0520/0524 -TSRA BKN050CB OVC100=



000
FTUS46 KPDT 042329
TAFDLS
TAF
KDLS 042329Z 0500/0524 32012KT P6SM VCSH SCT050 BKN100
      TEMPO 0500/0504 VRB20G30KT -TSRA BKN050CB BKN100
     FM050400 VRB06KT P6SM VCSH BKN050 BKN100
     FM050800 VRB06KT P6SM SCT050 BKN100
     FM052000 30008KT P6SM BKN050 BKN100
      TEMPO 0520/0524 -TSRA BKN050CB OVC100=



000
FTUS46 KPDT 042329
TAFYKM
TAF
KYKM 042329Z 0500/0524 VRB06KT P6SM SCT070 BKN100
      TEMPO 0502/0506 -TSRA BKN050CB BKN100
     FM050600 25007KT P6SM VCSH BKN050 BKN100
     FM051000 28008KT P6SM SCT050 BKN100
     FM052000 34008KT P6SM BKN050 BKN100
      TEMPO 0520/0524 -TSRA BKN050CB OVC100=



000
FTUS46 KPDT 042329
TAFRDM
TAF
KRDM 042329Z 0500/0524 28010KT P6SM SCT070 BKN100
      TEMPO 0500/0504 4SM -TSRA BKN050CB BKN100
     FM050400 17007KT P6SM VCSH BKN070 BKN100
      TEMPO 0504/0508 -TSRA BKN050CB BKN100
     FM050800 35008KT P6SM SCT050 BKN100
     FM052000 32008KT P6SM BKN050 BKN100
      TEMPO 0520/0524 -TSRA BKN050CB OVC100=



000
FTUS46 KPDT 042329
TAFPSC
TAF
KPSC 042329Z 0500/0524 34008KT P6SM VCSH SCT080 BKN100
      TEMPO 0501/0505 -TSRA BKN050CB BKN100
     FM050500 20007KT P6SM VCSH BKN050 BKN100
     FM051000 VRB06KT P6SM BKN060 BKN100
     FM051800 32008KT P6SM VCSH BKN060 BKN100
      TEMPO 0520/0524 -TSRA BKN050CB OVC100=



000
FTUS46 KPDT 042329
TAFPDT
TAF
KPDT 042329Z 0500/0524 34008KT P6SM VCSH SCT070 BKN100
      TEMPO 0501/0505 -TSRA BKN050CB BKN100
     FM050500 17007KT P6SM VCSH BKN050 BKN100
     FM050800 VRB06KT P6SM SCT050 BKN100
     FM052000 32008KT P6SM BKN050 BKN100
      TEMPO 0520/0524 -TSRA BKN050CB OVC100=



000
FTUS46 KPDT 042147 AAA
TAFRDM
TAF AMD
KRDM 042147Z 0422/0518 31010KT P6SM VCSH BKN060 OVC080
      TEMPO 0422/0502 VRB20G30KT 3SM -TSRA BKN050CB BKN100
     FM050200 35010KT P6SM -RA OVC050
      TEMPO 0502/0505 -TSRA BKN050CB BKN100
     FM050500 35008KT P6SM VCSH BKN050 BKN100=



000
FTUS46 KPDT 041740
TAFYKM
TAF
KYKM 041740Z 0418/0518 VRB06KT P6SM BKN100
      TEMPO 0423/0503 -TSRA BKN050CB BKN100
     FM050300 36007KT P6SM OVC070
      TEMPO 0503/0507 -RA BKN050
     FM050700 28007KT P6SM VCSH BKN070 BKN250=



000
FTUS46 KPDT 041740
TAFPDT
TAF
KPDT 041740Z 0418/0518 VRB06KT P6SM SCT100 BKN250
     FM042200 36010KT P6SM VCSH SCT070
      TEMPO 0423/0503 -TSRA BKN050CB BKN100
     FM050300 32007KT P6SM VCSH OVC070
      TEMPO 0503/0507 -RA BKN050
     FM050700 36008KT P6SM BKN100 BKN250=



000
FTUS46 KPDT 041740
TAFPSC
TAF
KPSC 041740Z 0418/0518 VRB06KT P6SM SCT100 BKN250
     FM042200 35010KT P6SM VCSH SCT070
      TEMPO 0423/0503 -TSRA BKN050CB BKN100
     FM050300 35010KT P6SM VCSH OVC070
      TEMPO 0503/0507 -RA BKN050
     FM050700 02010KT P6SM BKN100 BKN250=



000
FTUS46 KPDT 041740
TAFALW
TAF
KALW 041740Z 0418/0518 VRB06KT P6SM SCT100 BKN250
     FM042200 35010KT P6SM VCSH SCT070
      TEMPO 0423/0503 -TSRA BKN050CB BKN100
     FM050300 32007KT P6SM VCSH OVC070
      TEMPO 0503/0507 -RA BKN050
     FM050700 36008KT P6SM BKN100 BKN250=



000
FTUS46 KPDT 041740
TAFRDM
TAF
KRDM 041740Z 0418/0518 VRB06KT P6SM SCT100 BKN250
     FM042000 31010KT P6SM VCSH BKN060 OVC080
      TEMPO 0421/0501 -TSRA BKN050CB BKN100
     FM050100 35010KT P6SM -RA OVC050
      TEMPO 0501/0505 -TSRA BKN050CB BKN100
     FM050500 35008KT P6SM VCSH BKN050 BKN100=



000
FTUS46 KPDT 041740
TAFDLS
TAF
KDLS 041740Z 0418/0518 31010KT P6SM SCT100 BKN250
     FM042200 32015KT P6SM VCSH SCT060 BKN080
      TEMPO 0422/0502 -RA BKN050 BKN100
     FM050600 VRB06KT P6SM VCSH OVC060=



000
FTUS46 KPDT 041120
TAFPDT
TAF
KPDT 041120Z 0412/0512 13007KT P6SM SCT080 BKN120
     FM041800 03007KT P6SM SCT080 BKN120
     FM042200 36010KT P6SM -SHRA VCTS OVC070CB
     FM050200 27010KT P6SM VCSH OVC070=



000
FTUS46 KPDT 041120
TAFRDM
TAF
KRDM 041120Z 0412/0512 VRB05KT P6SM SCT080 BKN100
     FM042000 31010KT P6SM -SHRA VCTS BKN050CB OVC080
     FM050200 VRB04KT P6SM -SHRA OVC050=



000
FTUS46 KPDT 041120
TAFPSC
TAF
KPSC 041120Z 0412/0512 17006KT P6SM BKN120
     FM041800 22007KT P6SM BKN100
     FM050000 34008KT P6SM -SHRA VCTS OVC070CB
     FM050300 30007KT P6SM VCSH OVC080=



000
FTUS46 KPDT 041120
TAFDLS
TAF
KDLS 041120Z 0412/0512 31010KT P6SM BKN090 OVC120
     FM042200 32015KT P6SM -SHRA SCT060 BKN080
     FM050600 32010KT P6SM VCSH OVC060=



000
FTUS46 KPDT 041120
TAFYKM
TAF
KYKM 041120Z 0412/0512 30007KT P6SM BKN120
     FM041500 VRB04KT P6SM BKN100
     FM050000 VRB05KT P6SM -SHRA VCTS OVC070CB
     FM050300 28005KT P6SM -SHRA OVC060=



000
FTUS46 KPDT 041120
TAFRDM
TAF
KRDM 041120Z 0412/0512 VRB05KT P6SM SCT080 BKN100
     FM042000 31010KT P6SM -SHRA VCTS BKN050CB OVC080
     FM050200 VRB04KT P6SM -SHRA OVC050=



000
FTUS46 KPDT 041120
TAFPDT
TAF
KPDT 041120Z 0412/0512 13007KT P6SM SCT080 BKN120
     FM041800 03007KT P6SM SCT080 BKN120
     FM042200 36010KT P6SM -SHRA VCTS OVC070CB
     FM050200 27010KT P6SM VCSH OVC070=



000
FTUS46 KPDT 041120
TAFALW
TAF
KALW 041120Z 0412/0512 14009KT P6SM BKN120
     FM042000 VRB05KT P6SM BKN080 BKN100
     FM042300 VRB05KT P6SM -SHRA VCTS OVC070CB
     FM050300 15007KT P6SM VCSH OVC060=



000
FTUS46 KPDT 041120
TAFPSC
TAF
KPSC 041120Z 0412/0512 17006KT P6SM BKN120
     FM041800 22007KT P6SM BKN100
     FM050000 34008KT P6SM -SHRA VCTS OVC070CB
     FM050300 30007KT P6SM VCSH OVC080=



000
FTUS46 KPDT 041120
TAFDLS
TAF
KDLS 041120Z 0412/0512 31010KT P6SM BKN090 OVC120
     FM042200 32015KT P6SM -SHRA SCT060 BKN080
     FM050600 32010KT P6SM VCSH OVC060=



000
FTUS46 KPDT 041120
TAFALW
TAF
KALW 041120Z 0412/0512 14009KT P6SM BKN120
     FM042000 VRB05KT P6SM BKN080 BKN100
     FM042300 VRB05KT P6SM -SHRA VCTS OVC070CB
     FM050300 15007KT P6SM VCSH OVC060=



000
FTUS46 KPDT 041120
TAFYKM
TAF
KYKM 041120Z 0412/0512 30007KT P6SM BKN120
     FM041500 VRB04KT P6SM BKN100
     FM050000 VRB05KT P6SM -SHRA VCTS OVC070CB
     FM050300 28005KT P6SM -SHRA OVC060=



000
FTUS46 KPDT 040520
TAFPDT
TAF
KPDT 040520Z 0406/0506 26015G25KT P6SM VCSH SCT070 BKN100
     FM040800 23010KT P6SM BKN100
     FM041200 18007KT P6SM BKN100
     FM042000 33010KT P6SM SCT080 BKN100
     FM050100 32012KT P6SM -SHRA BKN080=



000
FTUS46 KPDT 040520
TAFDLS
TAF
KDLS 040520Z 0406/0506 31007KT P6SM BKN090 OVC120
     FM042100 32010KT P6SM -SHRA SCT060 BKN080=



000
FTUS46 KPDT 040520
TAFPSC
TAF
KPSC 040520Z 0406/0506 30015KT P6SM SCT120 BKN150
     FM040800 23008KT P6SM SCT120 BKN150
     FM041800 34006KT P6SM BKN120
     FM050300 31008KT P6SM VCSH BKN080=



000
FTUS46 KPDT 040520
TAFALW
TAF
KALW 040520Z 0406/0506 19012KT P6SM BKN120
     FM040800 18009KT P6SM BKN120
     FM042000 32005KT P6SM BKN100
     FM050200 16006KT P6SM VCSH BKN080=



000
FTUS46 KPDT 040520
TAFRDM
TAF
KRDM 040520Z 0406/0506 29006KT P6SM SCT100 BKN120
     FM041000 VRB04KT P6SM SCT080 BKN100
     FM042000 31010KT P6SM -SHRA SCT050 BKN080=



000
FTUS46 KPDT 040520
TAFYKM
TAF
KYKM 040520Z 0406/0506 28007KT P6SM -SHRA SCT080 BKN100
     FM041000 27006KT P6SM BKN100
     FM041500 14005KT P6SM BKN100
     FM042200 14005KT P6SM -SHRA BKN080
     FM050200 31008KT P6SM -SHRA BKN070=



000
FTUS46 KPDT 040501 AAC
TAFPDT
TAF AMD
KPDT 040501Z 0405/0424 26015G25KT P6SM VCSH SCT070 BKN100
     FM040800 23010KT P6SM BKN100
     FM041200 18007KT P6SM BKN100
     FM042000 33010KT P6SM VCSH SCT060 BKN100=



000
FTUS46 KPDT 040501 AAC
TAFPDT
TAF AMD
KPDT 040501Z 0405/0424 26015G25KT P6SM VCSH SCT070 BKN100
     FM040800 23010KT P6SM BKN100
     FM041200 18007KT P6SM BKN100
     FM042000 33010KT P6SM VCSH SCT060 BKN100=



000
FTUS46 KPDT 040500 AAB
TAFALW
TAF AMD
KALW 040500Z 0405/0424 19012KT P6SM BKN120
     FM040800 18009KT P6SM BKN120
     FM042000 30008KT P6SM BKN100=



000
FTUS46 KPDT 040458 AAA
TAFPSC
TAF AMD
KPSC 040458Z 0405/0424 30015KT P6SM SCT120 BKN150
     FM040700 23008KT P6SM SCT120 BKN150
     FM041800 33008KT P6SM BKN100=



000
FTUS46 KPDT 040458 AAA
TAFPSC
TAF AMD
KPSC 040458Z 0405/0424 30015KT P6SM SCT120 BKN150
     FM040700 23008KT P6SM SCT120 BKN150
     FM041800 33008KT P6SM BKN100=



000
FTUS46 KPDT 040311 AAA
TAFALW
TAF AMD
KALW 040311Z 0403/0424 11006KT P6SM BKN120
     FM040500 19009KT P6SM BKN100
     FM042000 30008KT P6SM BKN100=



000
FTUS46 KPDT 040257 AAB
TAFPDT
TAF AMD
KPDT 040257Z 0403/0424 26015G30KT P6SM VCSH BKN120
     FM040500 23010KT P6SM OVC100
     FM041200 18007KT P6SM OVC100
     FM042000 33010KT P6SM VCSH SCT060 BKN100=



000
FTUS46 KPDT 040257 AAB
TAFPDT
TAF AMD
KPDT 040257Z 0403/0424 26015G30KT P6SM VCSH BKN120
     FM040500 23010KT P6SM OVC100
     FM041200 18007KT P6SM OVC100
     FM042000 33010KT P6SM VCSH SCT060 BKN100=



000
FTUS46 KPDT 040213 AAA
TAFPDT
TAF AMD
KPDT 040213Z 0402/0424 26015G30KT P6SM VCSH BKN120
     FM040400 12006KT P6SM BKN100
     FM041800 33010KT P6SM VCSH SCT060 BKN100=



000
FTUS46 KPDT 032320
TAFPSC
TAF
KPSC 032320Z 0400/0424 33006KT P6SM SCT120 SCT250
     FM040400 24006KT P6SM SCT120 BKN200
     FM041800 33008KT P6SM VCSH SCT060 BKN100=



000
FTUS46 KPDT 032320
TAFRDM
TAF
KRDM 032320Z 0400/0424 33010KT P6SM VCSH FEW050 BKN090
     FM040300 29006KT P6SM -SHRA SCT040 BKN080
     FM040900 VRB04KT P6SM VCSH SCT040 BKN100
     FM042000 31010KT P6SM -SHRA SCT035 BKN070=



000
FTUS46 KPDT 032320
TAFPDT
TAF
KPDT 032320Z 0400/0424 07010KT P6SM SCT120 BKN200
     FM040300 12006KT P6SM BKN100
     FM041800 33010KT P6SM VCSH SCT060 BKN100=



000
FTUS46 KPDT 032320
TAFPSC
TAF
KPSC 032320Z 0400/0424 33006KT P6SM SCT120 SCT250
     FM040400 24006KT P6SM SCT120 BKN200
     FM041800 33008KT P6SM VCSH SCT060 BKN100=



000
FTUS46 KPDT 032320
TAFPDT
TAF
KPDT 032320Z 0400/0424 07010KT P6SM SCT120 BKN200
     FM040300 12006KT P6SM BKN100
     FM041800 33010KT P6SM VCSH SCT060 BKN100=



000
FTUS46 KPDT 032320
TAFRDM
TAF
KRDM 032320Z 0400/0424 33010KT P6SM VCSH FEW050 BKN090
     FM040300 29006KT P6SM -SHRA SCT040 BKN080
     FM040900 VRB04KT P6SM VCSH SCT040 BKN100
     FM042000 31010KT P6SM -SHRA SCT035 BKN070=



000
FTUS46 KPDT 032320
TAFYKM
TAF
KYKM 032320Z 0400/0424 15005KT P6SM VCSH SCT100 BKN200
     FM040300 30007KT P6SM VCSH BKN090
     FM041500 VRB05KT P6SM VCSH BKN080=



000
FTUS46 KPDT 032320
TAFYKM
TAF
KYKM 032320Z 0400/0424 15005KT P6SM VCSH SCT100 BKN200
     FM040300 30007KT P6SM VCSH BKN090
     FM041500 VRB05KT P6SM VCSH BKN080=



000
FTUS46 KPDT 032320
TAFDLS
TAF
KDLS 032320Z 0400/0424 31014KT P6SM VCSH SCT100 BKN200
     FM040300 31011KT P6SM -SHRA BKN080
     FM040800 30008KT P6SM SCT080 BKN120
     FM042100 32013KT P6SM VCSH SCT060 BKN100=



000
FTUS46 KPDT 032320
TAFALW
TAF
KALW 032320Z 0400/0424 VRB04KT P6SM SCT120 BKN200
     FM040300 11008KT P6SM BKN120
     FM040600 16005KT P6SM BKN100
     FM041800 30008KT P6SM VCSH SCT060 BKN100=



000
FTUS46 KPDT 032320
TAFDLS
TAF
KDLS 032320Z 0400/0424 31014KT P6SM VCSH SCT100 BKN200
     FM040300 31011KT P6SM -SHRA BKN080
     FM040800 30008KT P6SM SCT080 BKN120
     FM042100 32013KT P6SM VCSH SCT060 BKN100=



000
FTUS46 KPDT 032320
TAFALW
TAF
KALW 032320Z 0400/0424 VRB04KT P6SM SCT120 BKN200
     FM040300 11008KT P6SM BKN120
     FM040600 16005KT P6SM BKN100
     FM041800 30008KT P6SM VCSH SCT060 BKN100=



000
FTUS46 KPDT 031720
TAFALW
TAF
KALW 031720Z 0318/0418 32007KT P6SM FEW120 SCT250
     FM032300 25009KT P6SM SCT120 BKN200
     FM040300 11008KT P6SM BKN120
     FM040600 16008KT P6SM BKN100=



000
FTUS46 KPDT 031720
TAFRDM
TAF
KRDM 031720Z 0318/0418 23004KT P6SM SCT110 BKN200
     FM032000 28010KT P6SM BKN100 BKN200
     FM032200 33010KT P6SM VCSH SCT080 BKN100
     FM040100 29006KT P6SM -SHRA OVC070
     FM040900 17004KT P6SM VCSH SCT040 OVC070=



000
FTUS46 KPDT 031720
TAFDLS
TAF
KDLS 031720Z 0318/0418 32008KT P6SM SCT100 BKN200
     FM032100 31015G25KT P6SM VCSH BKN080
     FM040300 31011KT P6SM -SHRA OVC050
     FM040800 30008KT P6SM SCT050 OVC080=



000
FTUS46 KPDT 031720
TAFALW
TAF
KALW 031720Z 0318/0418 32007KT P6SM FEW120 SCT250
     FM032300 25009KT P6SM SCT120 BKN200
     FM040300 11008KT P6SM BKN120
     FM040600 16008KT P6SM BKN100=



000
FTUS46 KPDT 031720
TAFYKM
TAF
KYKM 031720Z 0318/0418 VRB04KT P6SM SCT120 BKN200
     FM032000 15005KT P6SM BKN100 BKN200
     FM040300 30007KT P6SM VCSH OVC090
     FM041500 VRB05KT P6SM VCSH OVC080=



000
FTUS46 KPDT 031720
TAFPDT
TAF
KPDT 031720Z 0318/0418 34007KT P6SM FEW120 SCT250
     FM032100 03010KT P6SM SCT120 BKN200
     FM040300 12006KT P6SM BKN100=



000
FTUS46 KPDT 031720
TAFDLS
TAF
KDLS 031720Z 0318/0418 32008KT P6SM SCT100 BKN200
     FM032100 31015G25KT P6SM VCSH BKN080
     FM040300 31011KT P6SM -SHRA OVC050
     FM040800 30008KT P6SM SCT050 OVC080=



000
FTUS46 KPDT 031720
TAFPDT
TAF
KPDT 031720Z 0318/0418 34007KT P6SM FEW120 SCT250
     FM032100 03010KT P6SM SCT120 BKN200
     FM040300 12006KT P6SM BKN100=



000
FTUS46 KPDT 031720
TAFRDM
TAF
KRDM 031720Z 0318/0418 23004KT P6SM SCT110 BKN200
     FM032000 28010KT P6SM BKN100 BKN200
     FM032200 33010KT P6SM VCSH SCT080 BKN100
     FM040100 29006KT P6SM -SHRA OVC070
     FM040900 17004KT P6SM VCSH SCT040 OVC070=



000
FTUS46 KPDT 031720
TAFPSC
TAF
KPSC 031720Z 0318/0418 35007KT P6SM SCT120 SCT250
     FM040400 24010KT P6SM BKN120 BKN200=



000
FTUS46 KPDT 031720
TAFPSC
TAF
KPSC 031720Z 0318/0418 35007KT P6SM SCT120 SCT250
     FM040400 24010KT P6SM BKN120 BKN200=



000
FTUS46 KPDT 031720
TAFYKM
TAF
KYKM 031720Z 0318/0418 VRB04KT P6SM SCT120 BKN200
     FM032000 15005KT P6SM BKN100 BKN200
     FM040300 30007KT P6SM VCSH OVC090
     FM041500 VRB05KT P6SM VCSH OVC080=



    US Dept of Commerce
    National Oceanic and Atmospheric Administration
    National Weather Service
    1325 East West Highway
    Silver Spring, MD 20910
    Page Author: NWS Internet Services Team
Disclaimer
Information Quality
Credits
Glossary
Privacy Policy
Freedom of Information Act (FOIA)
About Us
Career Opportunities